Time;durP1;ratioP1;P1;durP2;ratioP2;P2;SDS_P1;SDS_P2;PMS_P1;PMS_P2;Temp;Humidity;BMP_temperature;BMP_pressure;BME280_temperature;BME280_humidity;BME280_pressure;Samples;Min_cycle;Max_cycle;Signal;HPM_P1;HPM_P2
2023/11/21 00:01:17;;;;;;;;;4.33;4.33;;;;;;;;5067832;28;9176;-81
2023/11/21 00:03:44;;;;;;;;;3.33;3.33;;;;;;;;5067997;28;9329;-81
2023/11/21 00:06:11;;;;;;;;;5.00;5.00;;;;;;;;5067093;28;9317;-80
2023/11/21 00:08:39;;;;;;;;;4.00;4.00;;;;;;;;5068287;28;9172;-81
2023/11/21 00:11:06;;;;;;;;;4.00;4.00;;;;;;;;5086712;28;9310;-80
2023/11/21 00:13:34;;;;;;;;;5.33;5.33;;;;;;;;5097635;28;9336;-81
2023/11/21 00:16:04;;;;;;;;;6.00;4.33;;;;;;;;5087835;28;9391;-80
2023/11/21 00:18:31;;;;;;;;;7.67;6.00;;;;;;;;5063889;28;9394;-80
2023/11/21 00:20:59;;;;;;;;;5.00;5.00;;;;;;;;5052907;28;9387;-81
2023/11/21 00:23:26;;;;;;;;;4.00;4.00;;;;;;;;5071819;28;9421;-80
2023/11/21 00:25:53;;;;;;;;;8.00;6.00;;;;;;;;5070731;28;9333;-80
2023/11/21 00:28:20;;;;;;;;;4.33;4.33;;;;;;;;5071263;28;9488;-80
2023/11/21 00:30:49;;;;;;;;;7.50;7.50;;;;;;;;5070837;28;9341;-80
2023/11/21 00:33:18;;;;;;;;;6.00;6.00;;;;;;;;5072212;28;9565;-80
2023/11/21 00:35:45;;;;;;;;;5.75;5.75;;;;;;;;5072496;28;9475;-80
2023/11/21 00:38:13;;;;;;;;;11.25;5.50;;;;;;;;5073798;28;9503;-79
2023/11/21 00:40:40;;;;;;;;;5.25;5.25;;;;;;;;5073869;28;9553;-79
2023/11/21 00:43:07;;;;;;;;;6.75;6.75;;;;;;;;5074297;28;9566;-79
2023/11/21 00:45:36;;;;;;;;;7.00;7.00;;;;;;;;5071692;28;9555;-80
2023/11/21 00:48:04;;;;;;;;;6.50;6.50;;;;;;;;5065758;28;9676;-80
2023/11/21 00:50:33;;;;;;;;;10.00;10.00;;;;;;;;5072277;28;9625;-79
2023/11/21 00:53:01;;;;;;;;;11.25;9.50;;;;;;;;5064963;28;9762;-79
2023/11/21 00:55:32;;;;;;;;;12.25;11.25;;;;;;;;5070627;28;9616;-79
2023/11/21 00:57:59;;;;;;;;;8.25;7.50;;;;;;;;5071981;28;9822;-79
2023/11/21 01:00:26;;;;;;;;;6.00;5.00;;;;;;;;5070652;28;9932;-79
2023/11/21 01:02:54;;;;;;;;;5.25;5.25;;;;;;;;5073577;28;9705;-80
2023/11/21 01:05:21;;;;;;;;;2.00;2.00;;;;;;;;5071818;28;9538;-81
2023/11/21 01:07:52;;;;;;;;;10.75;8.75;;;;;;;;5070468;28;9801;-80
2023/11/21 01:10:20;;;;;;;;;13.00;11.25;;;;;;;;5070278;28;9778;-81
2023/11/21 01:12:50;;;;;;;;;7.75;5.75;;;;;;;;5070603;28;9779;-81
2023/11/21 01:15:17;;;;;;;;;7.25;7.25;;;;;;;;5070499;28;9980;-81
2023/11/21 01:17:48;;;;;;;;;7.00;7.00;;;;;;;;5070216;28;9859;-79
2023/11/21 01:20:17;;;;;;;;;7.50;4.00;;;;;;;;5067081;28;9898;-80
2023/11/21 01:22:44;;;;;;;;;5.00;5.00;;;;;;;;5069136;28;10084;-80
2023/11/21 01:25:14;;;;;;;;;7.50;5.50;;;;;;;;5070307;28;10030;-80
2023/11/21 01:27:41;;;;;;;;;7.25;7.25;;;;;;;;5070012;28;10148;-81
2023/11/21 01:30:10;;;;;;;;;8.75;8.75;;;;;;;;5069474;28;10108;-79
2023/11/21 01:32:37;;;;;;;;;6.25;6.25;;;;;;;;5069990;28;10165;-79
2023/11/21 01:35:06;;;;;;;;;10.00;6.25;;;;;;;;5069258;28;10275;-80
2023/11/21 01:37:33;;;;;;;;;5.25;5.25;;;;;;;;5069069;28;10055;-80
2023/11/21 01:40:02;;;;;;;;;8.75;6.25;;;;;;;;5070001;28;10173;-80
2023/11/21 01:42:33;;;;;;;;;6.00;6.00;;;;;;;;5069638;28;10187;-80
2023/11/21 01:45:05;;;;;;;;;8.00;8.00;;;;;;;;5069842;28;10149;-80
2023/11/21 01:47:32;;;;;;;;;8.00;8.00;;;;;;;;5069333;28;10357;-80
2023/11/21 01:50:04;;;;;;;;;6.25;4.50;;;;;;;;5069562;28;10252;-80
2023/11/21 01:52:31;;;;;;;;;9.50;9.50;;;;;;;;5057540;28;10244;-80
2023/11/21 01:54:59;;;;;;;;;9.00;9.00;;;;;;;;5069258;28;10456;-80
2023/11/21 01:57:27;;;;;;;;;5.00;5.00;;;;;;;;5069024;28;10247;-80
2023/11/21 01:59:56;;;;;;;;;7.25;5.75;;;;;;;;5070001;28;10414;-80
2023/11/21 02:02:24;;;;;;;;;10.00;8.00;;;;;;;;5068786;28;10134;-80
2023/11/21 02:04:51;;;;;;;;;4.00;4.00;;;;;;;;5068000;28;10247;-79
2023/11/21 02:07:23;;;;;;;;;7.75;7.75;;;;;;;;5069770;28;10188;-80
2023/11/21 02:09:51;;;;;;;;;10.50;8.75;;;;;;;;5069355;28;10295;-80
2023/11/21 02:12:18;;;;;;;;;6.00;6.00;;;;;;;;5069521;28;10271;-80
2023/11/21 02:14:45;;;;;;;;;7.25;7.25;;;;;;;;5069235;28;10106;-80
2023/11/21 02:17:14;;;;;;;;;11.25;9.75;;;;;;;;5071009;28;10197;-80
2023/11/21 02:19:41;;;;;;;;;8.25;8.25;;;;;;;;5074425;28;10345;-79
2023/11/21 02:22:09;;;;;;;;;9.50;8.00;;;;;;;;5075909;28;10405;-78
2023/11/21 02:24:38;;;;;;;;;8.25;6.75;;;;;;;;5071049;28;10375;-79
2023/11/21 02:27:06;;;;;;;;;5.00;5.00;;;;;;;;5070067;28;10236;-80
2023/11/21 02:29:33;;;;;;;;;10.00;5.50;;;;;;;;5070572;28;10102;-80
2023/11/21 02:32:00;;;;;;;;;10.00;8.25;;;;;;;;5070310;28;10116;-79
2023/11/21 02:34:28;;;;;;;;;8.25;6.75;;;;;;;;5053714;28;10389;-80
2023/11/21 02:36:57;;;;;;;;;8.25;5.75;;;;;;;;5072011;28;10144;-79
2023/11/21 02:39:24;;;;;;;;;8.75;8.75;;;;;;;;5071983;28;10270;-79
2023/11/21 02:41:53;;;;;;;;;7.50;6.50;;;;;;;;5073093;28;10445;-80
2023/11/21 02:44:20;;;;;;;;;9.00;9.00;;;;;;;;5072773;28;10293;-80
2023/11/21 02:46:47;;;;;;;;;12.00;10.00;;;;;;;;5070325;28;10235;-80
2023/11/21 02:49:14;;;;;;;;;9.00;9.00;;;;;;;;5071019;28;11199;-81
2023/11/21 02:51:42;;;;;;;;;14.25;10.25;;;;;;;;5072259;28;10230;-80
2023/11/21 02:54:10;;;;;;;;;13.00;10.00;;;;;;;;5071563;28;10175;-79
2023/11/21 02:56:37;;;;;;;;;12.00;9.75;;;;;;;;5068634;28;10328;-79
2023/11/21 02:59:05;;;;;;;;;9.00;6.25;;;;;;;;5068626;28;10240;-80
2023/11/21 03:01:33;;;;;;;;;9.75;8.75;;;;;;;;5067355;28;11130;-80
2023/11/21 03:04:03;;;;;;;;;10.25;8.75;;;;;;;;5062292;28;10329;-80
2023/11/21 03:06:33;;;;;;;;;13.25;11.75;;;;;;;;5063167;28;10329;-81
2023/11/21 03:09:01;;;;;;;;;12.75;12.75;;;;;;;;5055298;28;10456;-80
2023/11/21 03:11:32;;;;;;;;;7.25;4.75;;;;;;;;5068155;28;10309;-81
2023/11/21 03:14:02;;;;;;;;;8.50;8.50;;;;;;;;5066903;28;10261;-80
2023/11/21 03:16:33;;;;;;;;;11.00;10.00;;;;;;;;5067648;28;10173;-80
2023/11/21 03:19:01;;;;;;;;;9.25;9.00;;;;;;;;5067836;28;10385;-80
2023/11/21 03:21:29;;;;;;;;;10.75;10.00;;;;;;;;5067431;28;10249;-81
2023/11/21 03:23:56;;;;;;;;;9.25;9.25;;;;;;;;5056021;28;10158;-81
2023/11/21 03:26:23;;;;;;;;;6.50;6.50;;;;;;;;5067631;28;11011;-80
2023/11/21 03:28:53;;;;;;;;;8.00;8.00;;;;;;;;5068175;28;10319;-81
2023/11/21 03:31:24;;;;;;;;;7.00;7.00;;;;;;;;5067379;28;10167;-79
2023/11/21 03:33:53;;;;;;;;;9.50;8.00;;;;;;;;5063733;28;10210;-80
2023/11/21 03:36:21;;;;;;;;;7.25;7.25;;;;;;;;5067853;28;10132;-81
2023/11/21 03:38:51;;;;;;;;;10.00;9.50;;;;;;;;5067157;28;10264;-80
2023/11/21 03:41:19;;;;;;;;;11.00;9.50;;;;;;;;5068118;28;10110;-80
2023/11/21 03:43:46;;;;;;;;;14.25;11.00;;;;;;;;5067090;28;10038;-80
2023/11/21 03:46:13;;;;;;;;;11.00;11.00;;;;;;;;5072158;28;10111;-80
2023/11/21 03:48:41;;;;;;;;;5.50;5.50;;;;;;;;5072399;28;10028;-80
2023/11/21 03:51:10;;;;;;;;;7.75;7.75;;;;;;;;5072141;28;9910;-80
2023/11/21 03:53:37;;;;;;;;;9.50;6.00;;;;;;;;5071717;28;9955;-80
2023/11/21 03:56:05;;;;;;;;;7.50;7.50;;;;;;;;5072650;28;9934;-79
2023/11/21 03:58:32;;;;;;;;;13.00;11.00;;;;;;;;5071418;28;10029;-80
2023/11/21 04:01:02;;;;;;;;;15.00;10.50;;;;;;;;5071528;28;9946;-79
2023/11/21 04:03:29;;;;;;;;;11.00;11.00;;;;;;;;5071402;28;10199;-80
2023/11/21 04:05:57;;;;;;;;;9.75;9.00;;;;;;;;5071478;28;10027;-80
2023/11/21 04:08:26;;;;;;;;;9.75;9.00;;;;;;;;5070162;28;10032;-80
2023/11/21 04:10:53;;;;;;;;;10.00;6.25;;;;;;;;5053631;28;10035;-79
2023/11/21 04:13:21;;;;;;;;;9.50;9.50;;;;;;;;5070936;28;10039;-80
2023/11/21 04:15:48;;;;;;;;;10.75;10.75;;;;;;;;5072607;28;10031;-80
2023/11/21 04:18:15;;;;;;;;;8.50;6.00;;;;;;;;5072288;28;9928;-80
2023/11/21 04:20:44;;;;;;;;;10.25;8.00;;;;;;;;5073238;28;9864;-78
2023/11/21 04:23:13;;;;;;;;;8.50;8.50;;;;;;;;5074864;28;10041;-80
2023/11/21 04:25:42;;;;;;;;;10.50;9.50;;;;;;;;5075890;28;10129;-81
2023/11/21 04:28:09;;;;;;;;;4.75;4.75;;;;;;;;5076456;28;10007;-80
2023/11/21 04:30:36;;;;;;;;;10.75;10.75;;;;;;;;5075233;28;9679;-80
2023/11/21 04:33:04;;;;;;;;;8.00;7.50;;;;;;;;5070739;28;9836;-79
2023/11/21 04:35:31;;;;;;;;;8.75;8.75;;;;;;;;5068342;28;9787;-80
2023/11/21 04:38:02;;;;;;;;;6.00;6.00;;;;;;;;5072006;28;9936;-80
2023/11/21 04:40:32;;;;;;;;;10.25;8.75;;;;;;;;5072971;28;9844;-79
2023/11/21 04:43:01;;;;;;;;;10.75;7.00;;;;;;;;5065188;28;9693;-79
2023/11/21 04:45:29;;;;;;;;;14.00;10.50;;;;;;;;5072884;28;9805;-79
2023/11/21 04:47:56;;;;;;;;;11.25;10.00;;;;;;;;5069506;28;9775;-80
2023/11/21 04:50:23;;;;;;;;;10.00;10.00;;;;;;;;5069310;28;9776;-79
2023/11/21 04:52:50;;;;;;;;;11.75;9.75;;;;;;;;5071539;28;9864;-80
2023/11/21 04:55:22;;;;;;;;;10.00;10.00;;;;;;;;5074728;28;9724;-78
2023/11/21 04:57:50;;;;;;;;;10.75;9.50;;;;;;;;5081772;28;9767;-82
2023/11/21 05:00:19;;;;;;;;;13.50;10.25;;;;;;;;5067533;28;9871;-82
2023/11/21 05:02:47;;;;;;;;;10.00;8.50;;;;;;;;5070430;28;9808;-82
2023/11/21 05:05:15;;;;;;;;;9.00;9.00;;;;;;;;5070046;28;9974;-82
2023/11/21 05:07:57;;;;;;;;;7.25;7.25;;;;;;;;5068918;28;9846;-81
2023/11/21 05:10:26;;;;;;;;;10.00;10.00;;;;;;;;5065908;28;9940;-79
2023/11/21 05:12:54;;;;;;;;;12.00;11.75;;;;;;;;5070834;28;9784;-80
2023/11/21 05:15:25;;;;;;;;;5.50;4.75;;;;;;;;5070541;28;10042;-79
2023/11/21 05:17:55;;;;;;;;;8.50;8.50;;;;;;;;5069594;28;9774;-79
2023/11/21 05:20:23;;;;;;;;;8.50;8.00;;;;;;;;5070471;28;9795;-78
2023/11/21 05:22:51;;;;;;;;;10.75;9.00;;;;;;;;5071401;28;9846;-79
2023/11/21 05:25:19;;;;;;;;;12.25;10.00;;;;;;;;5070929;28;9732;-81
2023/11/21 05:27:49;;;;;;;;;11.00;9.50;;;;;;;;5070036;28;9715;-81
2023/11/21 05:30:18;;;;;;;;;11.25;11.25;;;;;;;;5070895;28;9886;-81
2023/11/21 05:32:49;;;;;;;;;10.75;10.75;;;;;;;;5071563;28;9910;-83
2023/11/21 05:35:21;;;;;;;;;10.25;10.25;;;;;;;;5070655;28;9808;-80
2023/11/21 05:37:51;;;;;;;;;7.00;7.00;;;;;;;;5070539;28;10572;-80
2023/11/21 05:40:30;;;;;;;;;13.50;12.75;;;;;;;;5069970;28;9771;-80
2023/11/21 05:42:58;;;;;;;;;10.75;10.75;;;;;;;;5068514;28;9971;-81
2023/11/21 05:45:25;;;;;;;;;12.00;12.00;;;;;;;;5069137;28;9992;-80
2023/11/21 05:48:00;;;;;;;;;17.00;14.00;;;;;;;;5069876;28;9704;-81
2023/11/21 05:50:28;;;;;;;;;14.00;14.00;;;;;;;;5068083;28;9855;-81
2023/11/21 05:52:59;;;;;;;;;14.50;14.50;;;;;;;;5069499;28;10052;-81
2023/11/21 05:55:27;;;;;;;;;14.00;14.00;;;;;;;;5067552;28;10029;-80
2023/11/21 05:57:54;;;;;;;;;14.75;13.00;;;;;;;;5069567;28;9939;-80
2023/11/21 06:00:25;;;;;;;;;16.50;16.00;;;;;;;;5059401;28;9951;-80
2023/11/21 06:02:58;;;;;;;;;17.25;13.25;;;;;;;;5068292;28;10032;-80
2023/11/21 06:05:42;;;;;;;;;;;;;;;;;;;;;
2023/11/21 06:08:12;;;;;;;;;14.75;14.00;;;;;;;;5070234;28;10062;-80
2023/11/21 06:10:49;;;;;;;;;12.75;12.75;;;;;;;;5073013;28;9946;-90
2023/11/21 06:13:20;;;;;;;;;14.75;13.75;;;;;;;;5070575;28;10074;-79
2023/11/21 06:15:47;;;;;;;;;11.75;11.00;;;;;;;;5073291;28;9836;-81
2023/11/21 06:18:19;;;;;;;;;11.75;11.00;;;;;;;;5060410;28;9919;-82
2023/11/21 06:20:50;;;;;;;;;9.50;9.50;;;;;;;;5068022;28;9850;-78
2023/11/21 06:23:17;;;;;;;;;13.25;12.00;;;;;;;;5059094;28;9796;-79
2023/11/21 06:25:48;;;;;;;;;9.00;9.00;;;;;;;;5067181;28;10035;-79
2023/11/21 06:28:17;;;;;;;;;13.50;10.00;;;;;;;;5070705;28;9851;-80
2023/11/21 06:30:48;;;;;;;;;11.25;9.75;;;;;;;;5070949;28;9731;-78
2023/11/21 06:33:21;;;;;;;;;10.00;10.00;;;;;;;;5071299;28;9876;-79
2023/11/21 06:35:52;;;;;;;;;11.00;11.00;;;;;;;;5069379;28;9789;-80
2023/11/21 06:38:21;;;;;;;;;16.00;14.00;;;;;;;;5067487;28;9782;-79
2023/11/21 06:40:48;;;;;;;;;13.00;13.00;;;;;;;;5067897;28;9776;-81
2023/11/21 06:43:18;;;;;;;;;10.75;10.75;;;;;;;;5069290;28;9649;-79
2023/11/21 06:45:46;;;;;;;;;13.00;11.25;;;;;;;;5066476;28;9764;-81
2023/11/21 06:48:13;;;;;;;;;10.50;10.50;;;;;;;;5067777;28;9688;-79
2023/11/21 06:50:42;;;;;;;;;13.25;11.25;;;;;;;;5066313;28;9755;-80
2023/11/21 06:53:09;;;;;;;;;11.25;11.25;;;;;;;;5067176;28;10366;-79
2023/11/21 06:55:37;;;;;;;;;10.50;10.50;;;;;;;;5068168;28;9686;-80
2023/11/21 06:58:07;;;;;;;;;7.50;7.50;;;;;;;;5067584;28;10300;-79
2023/11/21 07:00:34;;;;;;;;;11.75;11.75;;;;;;;;5067351;28;9518;-79
2023/11/21 07:03:01;;;;;;;;;8.75;8.00;;;;;;;;5067180;28;9680;-80
2023/11/21 07:05:32;;;;;;;;;11.25;9.25;;;;;;;;5068256;28;9505;-80
2023/11/21 07:08:04;;;;;;;;;12.00;9.75;;;;;;;;5068679;28;9508;-78
2023/11/21 07:10:31;;;;;;;;;9.00;9.00;;;;;;;;5075788;28;9747;-77
2023/11/21 07:12:58;;;;;;;;;5.00;5.00;;;;;;;;5074182;28;9546;-79
2023/11/21 07:15:26;;;;;;;;;8.00;8.00;;;;;;;;5068147;28;9387;-80
2023/11/21 07:17:56;;;;;;;;;7.25;7.25;;;;;;;;5067628;28;9498;-80
2023/11/21 07:20:24;;;;;;;;;7.00;7.00;;;;;;;;5067075;28;9474;-80
2023/11/21 07:22:51;;;;;;;;;8.00;8.00;;;;;;;;5067546;28;9731;-80
2023/11/21 07:25:19;;;;;;;;;14.25;12.25;;;;;;;;5067376;28;9467;-80
2023/11/21 07:27:47;;;;;;;;;11.00;11.00;;;;;;;;5067840;28;9645;-81
2023/11/21 07:30:15;;;;;;;;;8.00;8.00;;;;;;;;5067755;28;9370;-83
2023/11/21 07:32:42;;;;;;;;;8.50;8.00;;;;;;;;5067900;28;9404;-82
2023/11/21 07:35:10;;;;;;;;;8.00;8.00;;;;;;;;5067013;28;10305;-82
2023/11/21 07:37:37;;;;;;;;;11.25;9.50;;;;;;;;5068421;28;9384;-82
2023/11/21 07:40:05;;;;;;;;;7.00;7.00;;;;;;;;5062828;28;9469;-83
2023/11/21 07:42:34;;;;;;;;;9.50;6.50;;;;;;;;5071222;28;9519;-81
2023/11/21 07:45:02;;;;;;;;;5.00;5.00;;;;;;;;5070061;28;9471;-88
2023/11/21 07:47:29;;;;;;;;;4.00;4.00;;;;;;;;5070475;28;9344;-91
2023/11/21 07:49:57;;;;;;;;;6.00;6.00;;;;;;;;5063957;28;9339;-88
2023/11/21 07:52:26;;;;;;;;;5.00;5.00;;;;;;;;5071418;28;9281;-86
2023/11/21 07:54:54;;;;;;;;;4.00;4.00;;;;;;;;5073144;28;9267;-85
2023/11/21 07:57:21;;;;;;;;;5.33;5.33;;;;;;;;5066999;28;9386;-83
2023/11/21 07:59:50;;;;;;;;;4.33;4.33;;;;;;;;5069271;28;9162;-84
2023/11/21 08:02:17;;;;;;;;;10.67;7.67;;;;;;;;5073820;28;9053;-86
2023/11/21 08:04:44;;;;;;;;;6.00;6.00;;;;;;;;5063994;28;9178;-87
2023/11/21 08:07:12;;;;;;;;;7.67;7.67;;;;;;;;5065688;28;9086;-84
2023/11/21 08:09:41;;;;;;;;;6.00;6.00;;;;;;;;5070954;28;9168;-86
2023/11/21 08:12:10;;;;;;;;;7.67;7.67;;;;;;;;5071885;28;9115;-83
2023/11/21 08:14:38;;;;;;;;;5.33;5.33;;;;;;;;5071982;28;9154;-82
2023/11/21 08:17:10;;;;;;;;;6.33;6.33;;;;;;;;5071541;28;9093;-82
2023/11/21 08:19:37;;;;;;;;;15.00;15.00;;;;;;;;5069952;28;8930;-81
2023/11/21 08:22:07;;;;;;;;;16.00;13.00;;;;;;;;5067898;28;9333;-81
2023/11/21 08:24:34;;;;;;;;;15.00;12.00;;;;;;;;5070183;28;9181;-82
2023/11/21 08:27:01;;;;;;;;;20.00;17.00;;;;;;;;5067396;28;9773;-81
2023/11/21 08:29:29;;;;;;;;;13.67;13.00;;;;;;;;5066480;28;9346;-81
2023/11/21 08:31:57;;;;;;;;;16.00;16.00;;;;;;;;5069046;28;9188;-82
2023/11/21 08:34:25;;;;;;;;;18.33;18.33;;;;;;;;5070403;28;9186;-83
2023/11/21 08:36:52;;;;;;;;;21.00;17.00;;;;;;;;5071183;28;9446;-78
2023/11/21 08:39:20;;;;;;;;;14.33;14.33;;;;;;;;5070933;28;9367;-83
2023/11/21 08:41:50;;;;;;;;;17.00;14.00;;;;;;;;5070123;28;9254;-76
2023/11/21 08:44:17;;;;;;;;;16.00;16.00;;;;;;;;5069966;28;9217;-75
2023/11/21 08:46:46;;;;;;;;;17.00;14.00;;;;;;;;5062200;28;9109;-78
2023/11/21 08:49:15;;;;;;;;;16.33;14.33;;;;;;;;5070003;28;9236;-78
2023/11/21 08:51:49;;;;;;;;;10.00;10.00;;;;;;;;5070651;28;9173;-78
2023/11/21 08:54:16;;;;;;;;;10.00;8.33;;;;;;;;5070499;28;9078;-80
2023/11/21 08:56:45;;;;;;;;;11.00;10.00;;;;;;;;5069757;28;8944;-78
2023/11/21 08:59:14;;;;;;;;;9.50;9.50;;;;;;;;5070612;28;8936;-78
2023/11/21 09:01:42;;;;;;;;;9.00;8.00;;;;;;;;5069680;28;8808;-79
2023/11/21 09:04:09;;;;;;;;;6.25;6.25;;;;;;;;5070437;28;8867;-82
2023/11/21 09:06:36;;;;;;;;;6.75;6.75;;;;;;;;5069282;28;8844;-81
2023/11/21 09:09:05;;;;;;;;;10.00;10.00;;;;;;;;5071123;28;8894;-80
2023/11/21 09:11:35;;;;;;;;;8.75;8.75;;;;;;;;5067225;28;8972;-79
2023/11/21 09:14:03;;;;;;;;;11.50;9.00;;;;;;;;5061589;28;8852;-81
2023/11/21 09:16:31;;;;;;;;;9.00;9.00;;;;;;;;5070458;28;9528;-77
2023/11/21 09:18:59;;;;;;;;;16.00;12.67;;;;;;;;5070094;28;8844;-80
2023/11/21 09:21:29;;;;;;;;;9.50;9.50;;;;;;;;5071276;28;8938;-77
2023/11/21 09:23:56;;;;;;;;;8.00;8.00;;;;;;;;5070874;28;8886;-76
2023/11/21 09:26:26;;;;;;;;;9.75;9.75;;;;;;;;5071156;28;9088;-89
2023/11/21 09:28:56;;;;;;;;;8.00;8.00;;;;;;;;5070515;28;8880;-89
2023/11/21 09:31:24;;;;;;;;;10.00;10.00;;;;;;;;5070877;28;8880;-78
2023/11/21 09:33:51;;;;;;;;;6.75;6.75;;;;;;;;5070697;28;8946;-85
2023/11/21 09:36:18;;;;;;;;;8.00;6.50;;;;;;;;5071183;28;8880;-83
2023/11/21 09:38:46;;;;;;;;;8.33;7.33;;;;;;;;5071064;28;9001;-86
2023/11/21 09:41:20;;;;;;;;;10.00;10.00;;;;;;;;5073377;28;8955;-82
2023/11/21 09:43:49;;;;;;;;;10.00;8.67;;;;;;;;5076322;28;8928;-76
2023/11/21 09:46:20;;;;;;;;;13.00;13.00;;;;;;;;5069029;28;9018;-83
2023/11/21 09:48:52;;;;;;;;;12.00;10.00;;;;;;;;5066584;28;9066;-80
2023/11/21 09:51:23;;;;;;;;;9.75;9.75;;;;;;;;5064215;28;8947;-83
2023/11/21 09:53:53;;;;;;;;;6.00;6.00;;;;;;;;5073964;28;8971;-83
2023/11/21 09:56:23;;;;;;;;;9.50;8.00;;;;;;;;5066092;28;8862;-80
2023/11/21 09:58:56;;;;;;;;;9.50;9.50;;;;;;;;5072443;28;8972;-85
2023/11/21 10:01:28;;;;;;;;;9.75;9.75;;;;;;;;5065794;28;8799;-86
2023/11/21 10:03:56;;;;;;;;;10.75;10.75;;;;;;;;5072277;28;8848;-82
2023/11/21 10:06:25;;;;;;;;;9.67;9.67;;;;;;;;5073372;28;8837;-85
2023/11/21 10:08:53;;;;;;;;;10.33;10.33;;;;;;;;5065956;28;8950;-81
2023/11/21 10:11:23;;;;;;;;;10.00;10.00;;;;;;;;5065750;28;8958;-81
2023/11/21 10:13:53;;;;;;;;;8.50;8.50;;;;;;;;5068645;28;8921;-80
2023/11/21 10:16:22;;;;;;;;;7.25;7.25;;;;;;;;5071524;28;8949;-83
2023/11/21 10:18:50;;;;;;;;;4.75;4.50;;;;;;;;5077439;28;8856;-83
2023/11/21 10:21:18;;;;;;;;;8.25;8.25;;;;;;;;5068169;28;8867;-81
2023/11/21 10:23:46;;;;;;;;;7.00;6.50;;;;;;;;5069043;28;8876;-82
2023/11/21 10:26:16;;;;;;;;;6.25;6.00;;;;;;;;5069034;28;8848;-80
2023/11/21 10:28:57;;;;;;;;;8.25;8.25;;;;;;;;5068924;28;8879;-83
2023/11/21 10:31:27;;;;;;;;;6.75;6.50;;;;;;;;5057209;28;8797;-83
2023/11/21 10:33:54;;;;;;;;;6.50;5.50;;;;;;;;5069249;28;8864;-83
2023/11/21 10:36:39;;;;;;;;;5.25;5.25;;;;;;;;5058081;28;8866;-86
2023/11/21 10:39:06;;;;;;;;;6.50;6.25;;;;;;;;5068413;28;8965;-84
2023/11/21 10:41:35;;;;;;;;;5.75;5.75;;;;;;;;5068370;28;8967;-85
2023/11/21 10:44:07;;;;;;;;;6.00;6.00;;;;;;;;5067371;28;8847;-84
2023/11/21 10:46:35;;;;;;;;;3.67;3.67;;;;;;;;5069298;28;8849;-81
2023/11/21 10:49:05;;;;;;;;;3.75;2.00;;;;;;;;5067902;28;8837;-84
2023/11/21 10:51:32;;;;;;;;;5.00;5.00;;;;;;;;5068289;28;8870;-81
2023/11/21 10:54:01;;;;;;;;;5.50;5.50;;;;;;;;5067559;28;8875;-82
2023/11/21 10:56:30;;;;;;;;;2.00;2.00;;;;;;;;5069067;28;8893;-75
2023/11/21 10:59:01;;;;;;;;;5.50;5.00;;;;;;;;5068487;28;8875;-82
2023/11/21 11:01:31;;;;;;;;;3.50;3.50;;;;;;;;5069692;28;8812;-76
2023/11/21 11:04:00;;;;;;;;;3.00;3.00;;;;;;;;5081797;28;8859;-77
2023/11/21 11:06:32;;;;;;;;;8.50;7.50;;;;;;;;5069559;28;8852;-81
2023/11/21 11:09:02;;;;;;;;;6.00;5.00;;;;;;;;5071505;28;8870;-87
2023/11/21 11:11:32;;;;;;;;;4.75;4.75;;;;;;;;5069817;28;8857;-85
2023/11/21 11:14:03;;;;;;;;;4.75;4.75;;;;;;;;5068761;28;8945;-78
2023/11/21 11:16:31;;;;;;;;;4.00;4.00;;;;;;;;5067647;28;8856;-80
2023/11/21 11:19:01;;;;;;;;;4.00;4.00;;;;;;;;5068124;28;8849;-77
2023/11/21 11:21:36;;;;;;;;;5.25;4.25;;;;;;;;5067499;28;8863;-77
2023/11/21 11:24:19;;;;;;;;;4.75;4.25;;;;;;;;5068217;28;8848;-79
2023/11/21 11:26:51;;;;;;;;;10.75;10.75;;;;;;;;5069625;28;8872;-82
2023/11/21 11:29:28;;;;;;;;;6.25;4.75;;;;;;;;5071473;28;8872;-80
2023/11/21 11:32:09;;;;;;;;;4.50;4.50;;;;;;;;5075974;28;8822;-83
2023/11/21 11:34:41;;;;;;;;;4.00;4.00;;;;;;;;5063508;28;8870;-80
2023/11/21 11:37:08;;;;;;;;;7.25;4.00;;;;;;;;5067048;28;9030;-84
2023/11/21 11:39:37;;;;;;;;;4.50;4.50;;;;;;;;5063923;28;8859;-80
2023/11/21 11:42:09;;;;;;;;;8.25;4.50;;;;;;;;5071232;28;8852;-82
2023/11/21 11:44:56;;;;;;;;;2.00;2.00;;;;;;;;5082050;28;8866;-81
2023/11/21 11:47:27;;;;;;;;;5.50;5.00;;;;;;;;5070378;28;8856;-84
2023/11/21 11:50:11;;;;;;;;;4.50;4.50;;;;;;;;5071181;28;8832;-85
2023/11/21 11:52:39;;;;;;;;;4.75;4.25;;;;;;;;5070247;28;8906;-85
2023/11/21 11:55:09;;;;;;;;;7.25;7.25;;;;;;;;5069133;28;8844;-82
2023/11/21 11:57:38;;;;;;;;;7.25;7.25;;;;;;;;5058995;28;8864;-79
2023/11/21 12:00:15;;;;;;;;;5.25;4.75;;;;;;;;5065999;28;8837;-76
2023/11/21 12:02:47;;;;;;;;;5.75;5.75;;;;;;;;5067951;28;8858;-81
2023/11/21 12:05:17;;;;;;;;;3.75;3.75;;;;;;;;5066292;28;8832;-81
2023/11/21 12:07:49;;;;;;;;;4.25;4.25;;;;;;;;5071618;28;9614;-79
2023/11/21 12:10:18;;;;;;;;;7.25;6.25;;;;;;;;5073243;28;9653;-80
2023/11/21 12:12:47;;;;;;;;;6.50;6.50;;;;;;;;5074845;28;8874;-80
2023/11/21 12:15:15;;;;;;;;;6.50;6.50;;;;;;;;5071486;28;8848;-80
2023/11/21 12:17:44;;;;;;;;;8.25;8.25;;;;;;;;5070618;28;8873;-82
2023/11/21 12:20:17;;;;;;;;;6.50;5.00;;;;;;;;5071145;28;8860;-81
2023/11/21 12:22:48;;;;;;;;;5.25;5.25;;;;;;;;5071311;28;8951;-80
2023/11/21 12:25:18;;;;;;;;;7.50;7.50;;;;;;;;5071785;28;8868;-84
2023/11/21 12:27:49;;;;;;;;;8.50;8.50;;;;;;;;5070666;28;8963;-84
2023/11/21 12:30:17;;;;;;;;;6.25;6.25;;;;;;;;5071097;28;8851;-79
2023/11/21 12:32:49;;;;;;;;;9.25;9.25;;;;;;;;5071434;28;8852;-83
2023/11/21 12:35:19;;;;;;;;;7.00;7.00;;;;;;;;5071139;28;8840;-82
2023/11/21 12:37:50;;;;;;;;;10.00;8.25;;;;;;;;5059219;28;8910;-85
2023/11/21 12:40:17;;;;;;;;;9.50;9.50;;;;;;;;5072526;28;9015;-84
2023/11/21 12:42:49;;;;;;;;;8.50;6.50;;;;;;;;5073231;28;8990;-88
2023/11/21 12:45:25;;;;;;;;;6.00;6.00;;;;;;;;5071783;28;8840;-86
2023/11/21 12:47:59;;;;;;;;;4.25;4.25;;;;;;;;5071375;28;8868;-83
2023/11/21 12:50:28;;;;;;;;;5.25;5.25;;;;;;;;5071504;28;8866;-85
2023/11/21 12:53:02;;;;;;;;;7.25;6.00;;;;;;;;5071095;28;8860;-85
2023/11/21 12:55:31;;;;;;;;;5.75;5.75;;;;;;;;5071396;28;8856;-85
2023/11/21 12:58:05;;;;;;;;;4.25;4.00;;;;;;;;5070653;28;9626;-82
2023/11/21 13:00:37;;;;;;;;;4.50;4.50;;;;;;;;5070115;28;8769;-77
2023/11/21 13:03:06;;;;;;;;;5.25;5.25;;;;;;;;5069889;28;8941;-79
2023/11/21 13:05:38;;;;;;;;;5.25;4.00;;;;;;;;5071536;28;8864;-82
2023/11/21 13:08:09;;;;;;;;;4.00;4.00;;;;;;;;5070583;28;8856;-83
2023/11/21 13:10:38;;;;;;;;;3.00;3.00;;;;;;;;5070347;28;8848;-82
2023/11/21 13:13:09;;;;;;;;;5.25;4.25;;;;;;;;5070216;28;8832;-80
2023/11/21 13:15:40;;;;;;;;;3.50;3.50;;;;;;;;5073772;28;8834;-82
2023/11/21 13:18:10;;;;;;;;;1.75;1.75;;;;;;;;5073173;28;8903;-80
2023/11/21 13:20:40;;;;;;;;;2.00;2.00;;;;;;;;5073501;28;8850;-78
2023/11/21 13:23:12;;;;;;;;;4.00;4.00;;;;;;;;5066707;28;8894;-79
2023/11/21 13:25:41;;;;;;;;;2.75;2.00;;;;;;;;5069025;28;8887;-80
2023/11/21 13:28:09;;;;;;;;;3.75;3.75;;;;;;;;5062740;28;8887;-81
2023/11/21 13:30:37;;;;;;;;;3.50;3.50;;;;;;;;5068250;28;8794;-83
2023/11/21 13:33:05;;;;;;;;;4.25;4.25;;;;;;;;5070626;28;9662;-81
2023/11/21 13:35:37;;;;;;;;;3.75;3.75;;;;;;;;5064985;28;8978;-84
2023/11/21 13:38:06;;;;;;;;;2.00;2.00;;;;;;;;5071638;28;8845;-82
2023/11/21 13:40:37;;;;;;;;;3.00;3.00;;;;;;;;5073884;28;8840;-83
2023/11/21 13:43:05;;;;;;;;;5.50;5.50;;;;;;;;5071156;28;8887;-84
2023/11/21 13:45:32;;;;;;;;;4.00;4.00;;;;;;;;5069830;28;8915;-77
2023/11/21 13:47:59;;;;;;;;;3.25;3.25;;;;;;;;5065116;28;9010;-82
2023/11/21 13:50:32;;;;;;;;;5.00;5.00;;;;;;;;5062906;28;8848;-83
2023/11/21 13:53:10;;;;;;;;;4.25;4.25;;;;;;;;5069326;28;8959;-83
2023/11/21 13:55:39;;;;;;;;;2.00;2.00;;;;;;;;5067709;28;8868;-78
2023/11/21 13:58:09;;;;;;;;;3.50;3.50;;;;;;;;5069163;28;8841;-82
2023/11/21 14:00:41;;;;;;;;;3.00;3.00;;;;;;;;5068663;28;8791;-79
2023/11/21 14:03:17;;;;;;;;;3.25;3.25;;;;;;;;5065856;28;9006;-84
2023/11/21 14:05:46;;;;;;;;;4.25;4.25;;;;;;;;5067213;28;8853;-82
2023/11/21 14:08:16;;;;;;;;;4.25;4.25;;;;;;;;5081199;28;8894;-76
2023/11/21 14:10:47;;;;;;;;;5.00;3.00;;;;;;;;5080842;28;8871;-80
2023/11/21 14:13:16;;;;;;;;;3.00;3.00;;;;;;;;5062528;28;8874;-80
2023/11/21 14:15:45;;;;;;;;;3.50;3.50;;;;;;;;5069314;28;8957;-80
2023/11/21 14:18:17;;;;;;;;;3.00;3.00;;;;;;;;5068957;28;8981;-79
2023/11/21 14:20:44;;;;;;;;;2.75;2.75;;;;;;;;5069399;28;8948;-81
2023/11/21 14:23:11;;;;;;;;;3.75;3.00;;;;;;;;5069317;28;8963;-82
2023/11/21 14:25:41;;;;;;;;;4.00;4.00;;;;;;;;5069891;28;8844;-78
2023/11/21 14:28:11;;;;;;;;;4.75;3.25;;;;;;;;5050670;28;8840;-83
2023/11/21 14:30:39;;;;;;;;;4.00;4.00;;;;;;;;5058990;28;8814;-82
2023/11/21 14:33:08;;;;;;;;;5.75;3.00;;;;;;;;5068637;28;8864;-83
2023/11/21 14:35:35;;;;;;;;;4.25;4.00;;;;;;;;5068853;28;8860;-84
2023/11/21 14:38:04;;;;;;;;;4.75;4.75;;;;;;;;5069517;28;8959;-86
2023/11/21 14:40:35;;;;;;;;;3.50;3.50;;;;;;;;5069626;28;8878;-84
2023/11/21 14:43:06;;;;;;;;;4.00;4.00;;;;;;;;5069319;28;8920;-77
2023/11/21 14:45:33;;;;;;;;;2.75;2.50;;;;;;;;5068331;28;8867;-78
2023/11/21 14:48:06;;;;;;;;;2.00;2.00;;;;;;;;5067951;28;8872;-79
2023/11/21 14:53:42;;;;;;;;;4.00;2.50;;;;;;;;5064101;28;8844;-78
2023/11/21 14:56:10;;;;;;;;;2.25;2.25;;;;;;;;5068007;28;8849;-79
2023/11/21 14:58:39;;;;;;;;;2.25;2.25;;;;;;;;5067333;28;8832;-80
2023/11/21 15:01:07;;;;;;;;;7.75;7.00;;;;;;;;5067674;28;8765;-76
2023/11/21 15:03:43;;;;;;;;;5.50;4.25;;;;;;;;5068137;28;8855;-79